Terminal Aerodrome Forecast
Issued by NWS

Home | Current Version | Previous Version | Text Only | Print | Product List | Glossary On
Versions: 1 2 3 4 5 6 7 8 9 10 11 12
000
FTUS42 TJSJ 202320
TAFNCM
TAF
TNCM 202320Z 2100/2124 12005KT P6SM FEW023
     FM210200 VRB03KT P6SM SCT025 SCT090
     FM211500 09005KT P6SM SCT030 BKN250
     FM212300 13005KT P6SM SCT020 BKN060=

USA.gov is the U.S. government's official web portal to all federal, state and local government web resources and services.